Time;durP1;ratioP1;P1;durP2;ratioP2;P2;SDS_P1;SDS_P2;PMS_P1;PMS_P2;Temp;Humidity;BMP_temperature;BMP_pressure;BME280_temperature;BME280_humidity;BME280_pressure;Samples;Min_cycle;Max_cycle;Signal;HPM_P1;HPM_P2
2022/01/24 00:00:26;;;;;;;9.10;8.07;;;;;;;2.11;95.28;151909.13;5035637;28;20441;-76
2022/01/24 00:03:01;;;;;;;8.80;6.33;;;;;;;2.11;94.43;151909.13;5102021;28;20450;-76
2022/01/24 00:05:38;;;;;;;8.50;6.23;;;;;;;2.18;94.04;151927.13;5088567;28;20479;-76
2022/01/24 00:08:13;;;;;;;10.40;7.70;;;;;;;2.21;93.72;151934.84;5070282;28;20436;-75
2022/01/24 00:10:52;;;;;;;9.60;6.20;;;;;;;2.14;93.61;151915.56;5088154;28;20436;-76
2022/01/24 00:16:30;;;;;;;10.90;7.17;;;;;;;2.28;92.93;151952.81;5029780;28;20437;-76
2022/01/24 00:27:46;;;;;;;11.50;7.63;;;;;;;2.25;93.06;151945.09;5068010;28;20944;-76
2022/01/24 00:30:21;;;;;;;10.73;8.07;;;;;;;2.16;93.54;151920.69;5034466;28;20435;-75
2022/01/24 00:32:57;;;;;;;8.57;6.93;;;;;;;2.17;93.89;151924.53;5101615;28;20447;-76
2022/01/24 00:35:33;;;;;;;10.20;7.47;;;;;;;2.11;94.01;151909.13;5073438;28;20536;-75
2022/01/24 00:38:09;;;;;;;10.80;7.87;;;;;;;2.04;94.55;151891.09;5108182;28;20894;-76
2022/01/24 00:40:47;;;;;;;10.13;7.30;;;;;;;2.01;94.65;151882.13;5074660;28;20799;-76
2022/01/24 00:43:30;;;;;;;10.60;6.87;;;;;;;2.11;94.34;151909.13;5090311;28;20499;-76
2022/01/24 00:46:16;;;;;;;12.00;7.00;;;;;;;2.13;93.98;151912.97;5107105;28;20830;-76
2022/01/24 00:49:13;;;;;;;10.37;8.20;;;;;;;1.98;94.84;151875.72;5092115;28;20442;-76
2022/01/24 00:54:44;;;;;;;13.07;8.20;;;;;;;1.91;95.58;151856.44;5074069;28;20883;-76
2022/01/24 00:57:20;;;;;;;11.60;8.03;;;;;;;1.81;95.94;151832.00;5099457;28;20465;-75
2022/01/24 00:59:57;;;;;;;10.70;8.10;;;;;;;1.76;96.39;151819.13;5073284;28;20446;-76
2022/01/24 01:02:32;;;;;;;10.60;8.20;;;;;;;1.76;96.43;151819.13;5091136;28;20436;-75
2022/01/24 01:05:21;;;;;;;10.70;7.93;;;;;;;1.79;95.92;151826.84;5057302;28;20445;-75
2022/01/24 01:08:12;;;;;;;11.13;8.00;;;;;;;1.73;95.88;151812.72;5091124;28;20434;-76
2022/01/24 01:19:29;;;;;;;8.90;7.17;;;;;;;1.66;97.00;151793.44;5072770;28;20533;-75
2022/01/24 01:22:05;;;;;;;9.90;7.87;;;;;;;1.69;97.51;151801.16;5072427;28;20458;-75
2022/01/24 01:24:46;;;;;;;13.10;7.87;;;;;;;1.72;96.95;151808.88;5090662;28;20477;-76
2022/01/24 01:27:26;;;;;;;11.90;8.63;;;;;;;1.83;97.04;151838.41;5091170;28;20531;-76
2022/01/24 01:30:11;;;;;;;11.80;8.63;;;;;;;1.83;97.30;151837.13;5071825;28;20439;-75
2022/01/24 01:32:58;;;;;;;14.10;8.90;;;;;;;1.88;97.08;151848.72;5107137;28;20470;-76
2022/01/24 01:35:49;;;;;;;12.57;9.13;;;;;;;1.81;97.55;151832.00;5072984;28;20925;-75
2022/01/24 01:53:25;;;;;;;10.30;7.90;;;;;;;1.64;98.91;151789.56;5072311;28;20941;-76
2022/01/24 01:56:00;;;;;;;10.87;8.97;;;;;;;1.60;98.45;151778.00;5056617;28;20520;-75
2022/01/24 01:58:36;;;;;;;10.70;8.37;;;;;;;1.57;98.62;151771.59;5073111;28;20802;-76
2022/01/24 02:01:11;;;;;;;11.50;8.47;;;;;;;1.59;98.34;151776.72;5105837;28;20778;-76
2022/01/24 02:03:50;;;;;;;10.70;7.70;;;;;;;1.68;97.87;151798.56;5081110;28;20880;-76
2022/01/24 02:06:27;;;;;;;12.47;8.40;;;;;;;1.57;98.35;151771.59;5106103;28;20466;-75
2022/01/24 02:09:09;;;;;;;10.17;7.93;;;;;;;1.64;98.06;151788.31;5105987;28;21227;-75
2022/01/24 02:11:47;;;;;;;11.80;7.57;;;;;;;1.63;97.95;151785.72;5105815;28;20431;-75
2022/01/24 02:14:29;;;;;;;9.07;7.37;;;;;;;1.61;97.67;151780.59;5056019;28;20962;-75
2022/01/24 02:17:09;;;;;;;10.30;7.13;;;;;;;1.69;97.34;151801.16;5089439;28;20794;-75
2022/01/24 02:20:05;;;;;;;11.50;8.33;;;;;;;1.67;96.95;151795.97;5104962;28;20451;-75
2022/01/24 02:22:49;;;;;;;9.77;7.37;;;;;;;1.66;97.13;151794.75;5071976;28;20435;-76
2022/01/24 02:25:27;;;;;;;10.63;7.90;;;;;;;1.64;97.52;151789.56;5070333;28;20439;-75
2022/01/24 02:28:04;;;;;;;10.33;7.73;;;;;;;1.63;97.18;151785.72;5105143;28;21002;-75
2022/01/24 02:30:57;;;;;;;10.73;7.30;;;;;;;1.59;97.03;151776.72;5105035;28;20443;-75
2022/01/24 02:33:32;;;;;;;10.17;7.30;;;;;;;1.56;97.30;151767.75;5056093;28;20467;-75
2022/01/24 02:36:08;;;;;;;10.10;8.10;;;;;;;1.55;97.08;151766.47;5070137;28;20453;-75
2022/01/24 02:38:56;;;;;;;11.30;8.20;;;;;;;1.53;97.32;151760.03;5105707;28;20454;-76
2022/01/24 02:50:15;;;;;;;8.80;6.83;;;;;;;1.32;98.14;151707.38;5105238;28;20438;-75
2022/01/24 02:52:51;;;;;;;11.10;7.33;;;;;;;1.32;98.17;151707.38;5104894;28;20853;-76
2022/01/24 02:55:28;;;;;;;11.10;7.10;;;;;;;1.39;97.53;151724.03;5104551;28;20449;-76
2022/01/24 02:58:04;;;;;;;9.73;7.33;;;;;;;1.43;97.58;151734.34;5084527;28;20431;-76
2022/01/24 03:00:40;;;;;;;9.30;7.30;;;;;;;1.41;97.13;151729.16;5036166;28;20434;-75
2022/01/24 03:03:16;;;;;;;9.90;6.37;;;;;;;1.35;97.25;151715.03;5097783;28;20441;-75
2022/01/24 03:05:52;;;;;;;8.50;7.10;;;;;;;1.30;97.75;151700.94;5104621;28;20442;-76
2022/01/24 03:08:28;;;;;;;9.87;6.90;;;;;;;1.32;97.78;151706.06;5055174;28;20452;-75
2022/01/24 03:11:05;;;;;;;10.37;7.33;;;;;;;1.31;97.91;151704.78;5070489;28;20858;-75
2022/01/24 03:13:40;;;;;;;9.43;7.07;;;;;;;1.25;98.07;151689.34;5103084;28;20496;-75
2022/01/24 03:16:17;;;;;;;10.87;7.40;;;;;;;1.34;98.13;151712.50;5056400;28;20453;-75
2022/01/24 03:18:53;;;;;;;9.87;6.83;;;;;;;1.36;97.77;151716.31;5089268;28;20438;-76
2022/01/24 03:21:28;;;;;;;8.77;6.40;;;;;;;1.51;97.00;151754.91;5072433;28;20413;-76
2022/01/24 03:24:04;;;;;;;9.33;6.90;;;;;;;1.34;97.54;151711.19;5067356;28;20794;-75
2022/01/24 03:26:42;;;;;;;10.70;7.83;;;;;;;1.42;97.10;151731.75;5098492;28;20500;-75
2022/01/24 03:29:17;;;;;;;12.13;8.93;;;;;;;1.41;97.41;151729.16;5104124;28;20868;-75
2022/01/24 03:31:53;;;;;;;12.30;7.83;;;;;;;1.27;98.01;151694.53;5072174;28;21035;-76
2022/01/24 03:34:28;;;;;;;11.30;7.70;;;;;;;1.28;98.17;151695.78;5084894;28;20539;-75
2022/01/24 03:37:04;;;;;;;12.53;8.30;;;;;;;1.17;98.69;151668.78;5082562;28;20943;-75
2022/01/24 03:39:40;;;;;;;11.10;7.40;;;;;;;1.14;98.53;151661.09;5072454;28;20419;-75
2022/01/24 03:42:17;;;;;;;10.13;7.60;;;;;;;1.12;99.23;151657.25;5103986;28;20544;-75
2022/01/24 03:44:57;;;;;;;10.00;7.30;;;;;;;1.13;99.19;151659.84;5085788;28;20436;-75
2022/01/24 03:47:44;;;;;;;11.50;8.50;;;;;;;1.06;99.23;151641.81;5070091;28;20481;-75
2022/01/24 03:50:20;;;;;;;9.57;7.40;;;;;;;1.03;99.85;151634.09;5105062;28;20425;-76
2022/01/24 03:52:56;;;;;;;11.17;8.10;;;;;;;1.00;99.69;151626.44;5105157;28;20446;-75
2022/01/24 03:55:33;;;;;;;9.90;7.60;;;;;;;1.00;100.00;151626.44;5104430;28;20440;-75
2022/01/24 03:58:10;;;;;;;10.03;8.13;;;;;;;0.98;100.00;151620.03;5088650;28;20504;-76
2022/01/24 04:00:45;;;;;;;10.67;7.43;;;;;;;0.94;100.00;151609.72;5103888;28;20475;-75
2022/01/24 04:03:21;;;;;;;11.27;8.07;;;;;;;0.84;100.00;151585.34;5067448;28;20447;-75
2022/01/24 04:05:57;;;;;;;11.33;7.40;;;;;;;0.78;100.00;151569.91;5073938;28;20454;-74
2022/01/24 04:08:33;;;;;;;11.03;7.80;;;;;;;0.77;100.00;151567.34;5106644;28;20572;-75
2022/01/24 04:11:11;;;;;;;10.37;8.27;;;;;;;0.67;100.00;151541.66;5059444;28;20437;-74
2022/01/24 04:13:57;;;;;;;9.43;7.10;;;;;;;0.66;100.00;151539.13;5108031;28;20480;-75
2022/01/24 04:16:34;;;;;;;10.00;8.30;;;;;;;0.67;100.00;151541.66;5092091;28;20446;-74
2022/01/24 04:19:31;;;;;;;11.90;8.33;;;;;;;0.69;100.00;151546.78;5089703;28;20465;-74
2022/01/24 04:22:04;;;;;;;11.00;8.17;;;;;;;0.86;100.00;151590.47;5091914;28;20556;-75
2022/01/24 04:24:40;;;;;;;11.13;7.33;;;;;;;0.92;100.00;151605.91;5053919;28;20465;-74
2022/01/24 04:27:16;;;;;;;12.70;8.70;;;;;;;0.94;100.00;151611.03;5074221;28;20478;-75
2022/01/24 04:29:53;;;;;;;9.97;8.23;;;;;;;0.93;100.00;151608.44;5108115;28;20936;-74
2022/01/24 04:32:29;;;;;;;10.80;7.80;;;;;;;0.92;100.00;151605.91;5091607;28;20959;-77
2022/01/24 04:35:05;;;;;;;11.60;7.27;;;;;;;0.87;100.00;151593.06;5090966;28;20449;-74
2022/01/24 04:37:40;;;;;;;11.50;8.07;;;;;;;0.90;100.00;151600.72;5052748;28;20449;-74
2022/01/24 04:40:16;;;;;;;10.23;8.37;;;;;;;0.97;100.00;151618.72;5073625;28;20422;-75
2022/01/24 04:43:01;;;;;;;12.27;8.60;;;;;;;0.99;100.00;151622.56;5056744;28;20449;-77
2022/01/24 04:45:58;;;;;;;10.30;7.40;;;;;;;1.01;100.00;151628.97;5087622;28;20435;-75
2022/01/24 04:51:52;;;;;;;10.10;8.30;;;;;;;0.95;100.00;151613.59;4990559;28;20851;-76
2022/01/24 04:54:40;;;;;;;10.83;7.63;;;;;;;0.93;100.00;151608.44;5071306;28;20477;-74
2022/01/24 04:57:18;;;;;;;9.90;7.57;;;;;;;0.96;100.00;151616.16;5107049;28;20430;-76
2022/01/24 04:59:55;;;;;;;9.33;7.00;;;;;;;1.02;100.00;151631.56;5107357;28;20550;-76
2022/01/24 05:02:32;;;;;;;10.63;7.90;;;;;;;1.00;100.00;151626.44;5064031;28;20541;-76
2022/01/24 05:05:13;;;;;;;11.37;8.73;;;;;;;0.98;100.00;151621.28;5053730;28;20447;-75
2022/01/24 05:07:51;;;;;;;13.83;7.30;;;;;;;1.04;100.00;151635.41;5060951;28;20695;-77
2022/01/24 05:10:34;;;;;;;11.33;9.07;;;;;;;1.06;100.00;151641.81;5073862;28;20458;-76
2022/01/24 05:24:45;;;;;;;11.80;8.67;;;;;;;1.06;100.00;151641.81;5028867;28;20450;-76
2022/01/24 05:27:21;;;;;;;11.53;8.43;;;;;;;1.05;100.00;151639.28;5072077;28;20469;-76
2022/01/24 05:29:56;;;;;;;13.93;9.63;;;;;;;1.01;100.00;151628.97;5090675;28;20449;-76
2022/01/24 05:32:36;;;;;;;13.57;9.73;;;;;;;0.99;100.00;151623.84;5106316;28;20472;-76
2022/01/24 05:35:14;;;;;;;13.80;10.80;;;;;;;0.95;100.00;151612.31;5071729;28;20446;-76
2022/01/24 05:37:51;;;;;;;13.37;9.97;;;;;;;0.92;100.00;151605.91;5057291;28;20453;-76
2022/01/24 05:40:27;;;;;;;10.73;9.00;;;;;;;0.92;100.00;151605.91;5071618;28;20453;-76
2022/01/24 05:43:02;;;;;;;12.83;10.20;;;;;;;0.90;100.00;151600.72;5083091;28;20544;-76
2022/01/24 05:45:38;;;;;;;11.60;8.93;;;;;;;0.92;100.00;151605.91;5061077;28;20426;-76
2022/01/24 05:48:14;;;;;;;12.70;10.07;;;;;;;0.88;100.00;151594.31;5057406;28;20470;-76
2022/01/24 05:50:51;;;;;;;10.60;9.10;;;;;;;0.85;100.00;151587.88;5065717;28;20541;-76
2022/01/24 05:53:26;;;;;;;10.30;8.90;;;;;;;0.85;100.00;151587.88;5071823;28;20441;-76
2022/01/24 05:56:02;;;;;;;14.00;10.20;;;;;;;0.89;100.00;151596.88;5105391;28;20436;-76
2022/01/24 05:58:38;;;;;;;12.37;9.30;;;;;;;0.87;100.00;151593.06;5056478;28;20510;-76
2022/01/24 06:01:13;;;;;;;15.03;9.90;;;;;;;0.92;100.00;151605.91;5063670;28;20443;-75
2022/01/24 06:03:49;;;;;;;17.33;10.23;;;;;;;0.91;100.00;151603.31;5081345;28;20481;-75
2022/01/24 06:06:26;;;;;;;13.27;10.30;;;;;;;0.95;100.00;151613.59;5072985;28;20409;-76
2022/01/24 06:09:01;;;;;;;12.40;9.00;;;;;;;1.00;100.00;151626.44;5069613;28;20513;-76
2022/01/24 06:11:37;;;;;;;16.20;11.23;;;;;;;1.04;100.00;151635.41;5071481;28;20430;-76
2022/01/24 06:14:12;;;;;;;13.73;10.40;;;;;;;1.05;100.00;151639.28;5072650;28;20473;-75
2022/01/24 06:16:48;;;;;;;14.07;10.80;;;;;;;1.03;100.00;151632.88;5070442;28;20965;-76
2022/01/24 06:19:23;;;;;;;13.30;10.40;;;;;;;0.95;100.00;151613.59;5068232;28;20434;-75
2022/01/24 06:22:00;;;;;;;16.23;11.57;;;;;;;0.96;100.00;151616.16;5070173;28;20437;-76
2022/01/24 06:24:36;;;;;;;13.57;9.83;;;;;;;0.94;100.00;151611.03;5055814;28;21064;-76
2022/01/24 06:27:11;;;;;;;13.50;10.10;;;;;;;0.96;100.00;151614.84;5063971;28;20441;-76
2022/01/24 06:29:47;;;;;;;14.40;10.90;;;;;;;0.95;100.00;151613.59;5055999;28;20607;-75
2022/01/24 06:32:22;;;;;;;14.73;10.40;;;;;;;0.94;100.00;151611.03;5069923;28;20477;-75
2022/01/24 06:34:58;;;;;;;16.70;11.50;;;;;;;0.95;100.00;151613.59;5069986;28;20558;-76
2022/01/24 06:37:35;;;;;;;15.17;11.07;;;;;;;0.94;100.00;151609.72;5051625;28;20433;-76
2022/01/24 06:40:12;;;;;;;17.60;11.20;;;;;;;0.97;100.00;151618.72;5056348;28;20442;-75
2022/01/24 06:42:47;;;;;;;15.67;11.00;;;;;;;0.91;100.00;151602.00;5071150;28;20798;-75
2022/01/24 06:45:23;;;;;;;13.70;10.60;;;;;;;0.94;100.00;151609.72;5051783;28;20446;-75
2022/01/24 06:47:59;;;;;;;19.37;13.50;;;;;;;0.97;100.00;151617.44;5038137;28;20474;-75
2022/01/24 06:50:34;;;;;;;14.70;10.33;;;;;;;1.10;100.00;151652.13;5061909;28;20872;-76
2022/01/24 06:53:12;;;;;;;14.90;10.10;;;;;;;1.10;100.00;151652.13;5067387;28;20441;-76
2022/01/24 06:55:47;;;;;;;14.90;10.50;;;;;;;1.23;100.00;151685.53;5060022;28;20446;-75
2022/01/24 06:58:24;;;;;;;14.70;11.50;;;;;;;1.19;100.00;151675.22;5068582;28;20449;-76
2022/01/24 07:01:00;;;;;;;14.20;11.30;;;;;;;1.13;100.00;151659.84;5056608;28;20446;-75
2022/01/24 07:03:35;;;;;;;14.50;11.17;;;;;;;1.18;100.00;151671.38;5050039;28;20442;-75
2022/01/24 07:06:11;;;;;;;15.57;10.80;;;;;;;1.26;100.00;151690.66;5097821;28;20564;-75
2022/01/24 07:08:48;;;;;;;17.60;12.83;;;;;;;1.26;100.00;151691.94;5066192;28;20489;-75
2022/01/24 07:11:24;;;;;;;18.63;11.53;;;;;;;1.28;100.00;151697.06;5065845;28;20447;-76
2022/01/24 07:14:00;;;;;;;16.77;11.07;;;;;;;1.29;100.00;151699.66;5051749;28;20974;-76
2022/01/24 07:16:59;;;;;;;17.57;12.20;;;;;;;1.36;100.00;151716.31;5067948;28;20791;-75
2022/01/24 07:19:32;;;;;;;23.37;13.37;;;;;;;1.36;100.00;151716.31;5042564;28;20453;-76
2022/01/24 07:22:08;;;;;;;25.10;15.63;;;;;;;1.30;100.00;151700.94;5064291;28;20497;-75
2022/01/24 07:24:45;;;;;;;17.70;13.07;;;;;;;1.28;100.00;151695.78;5041645;28;21022;-75
2022/01/24 07:27:20;;;;;;;20.60;12.97;;;;;;;1.32;100.00;151706.06;5059846;28;20445;-76
2022/01/24 07:29:58;;;;;;;20.50;14.40;;;;;;;1.36;100.00;151716.31;5066577;28;20869;-75
2022/01/24 07:32:33;;;;;;;21.13;14.70;;;;;;;1.40;100.00;151726.63;5101826;28;20453;-75
2022/01/24 07:35:09;;;;;;;21.20;15.30;;;;;;;1.41;100.00;151730.47;5052472;28;20930;-75
2022/01/24 07:37:45;;;;;;;18.57;13.83;;;;;;;1.39;100.00;151724.03;5067647;28;20449;-75
2022/01/24 07:40:22;;;;;;;18.33;14.57;;;;;;;1.42;100.00;151731.75;5067815;28;20968;-75
2022/01/24 07:43:09;;;;;;;22.10;15.30;;;;;;;1.37;100.00;151718.91;5069324;28;20795;-76
2022/01/24 07:45:46;;;;;;;16.83;13.10;;;;;;;1.45;100.00;151740.78;5061112;28;20467;-75
2022/01/24 07:48:22;;;;;;;18.47;13.23;;;;;;;1.42;100.00;151733.06;5070065;28;20498;-75
2022/01/24 07:50:57;;;;;;;19.90;14.70;;;;;;;1.59;100.00;151775.47;5088616;28;20453;-75
2022/01/24 07:53:33;;;;;;;21.37;14.93;;;;;;;1.56;100.00;151767.75;5046337;28;20541;-76
2022/01/24 07:56:11;;;;;;;19.00;13.17;;;;;;;1.58;100.00;151772.88;5054109;28;20446;-75
2022/01/24 07:58:46;;;;;;;19.50;14.83;;;;;;;1.53;100.00;151760.03;5057247;28;20441;-75
2022/01/24 08:01:22;;;;;;;20.63;16.03;;;;;;;1.53;100.00;151761.34;5071483;28;20452;-75
2022/01/24 08:03:57;;;;;;;18.30;13.23;;;;;;;1.47;100.00;151745.91;5070855;28;20532;-76
2022/01/24 08:06:33;;;;;;;18.13;13.67;;;;;;;1.51;100.00;151756.16;5070554;28;20441;-75
2022/01/24 08:09:09;;;;;;;15.60;12.90;;;;;;;1.57;100.00;151771.59;5043207;28;20830;-76
2022/01/24 08:11:46;;;;;;;16.90;11.27;;;;;;;1.64;100.00;151788.31;5055667;28;20430;-76
2022/01/24 08:14:22;;;;;;;17.80;13.83;;;;;;;1.57;100.00;151771.59;5070712;28;20999;-75
2022/01/24 08:16:59;;;;;;;17.30;12.43;;;;;;;1.57;100.00;151770.28;5071319;28;20435;-76
2022/01/24 08:19:35;;;;;;;17.63;11.63;;;;;;;1.49;100.00;151751.03;5088524;28;20528;-75
2022/01/24 08:22:12;;;;;;;18.90;14.00;;;;;;;1.56;100.00;151767.75;5070961;28;20524;-75
2022/01/24 08:24:49;;;;;;;19.20;13.80;;;;;;;1.56;100.00;151769.00;5055165;28;20448;-76
2022/01/24 08:27:26;;;;;;;19.27;12.20;;;;;;;1.65;100.00;151792.16;5049425;28;20433;-76
2022/01/24 08:30:03;;;;;;;17.07;11.53;;;;;;;1.74;100.00;151814.00;5070314;28;20418;-76
2022/01/24 08:32:39;;;;;;;16.93;12.43;;;;;;;1.77;99.61;151821.72;5072295;28;20430;-75
2022/01/24 08:35:15;;;;;;;12.80;10.37;;;;;;;1.80;99.15;151829.44;5070981;28;20435;-75
2022/01/24 08:37:51;;;;;;;17.03;10.57;;;;;;;1.75;99.12;151816.56;5070815;28;20447;-76
2022/01/24 08:40:28;;;;;;;14.87;10.83;;;;;;;1.82;98.73;151834.56;5054010;28;20454;-76
2022/01/24 08:43:06;;;;;;;16.50;11.53;;;;;;;1.95;98.70;151868.00;5055053;28;20495;-75
2022/01/24 08:45:47;;;;;;;15.00;10.50;;;;;;;1.86;99.12;151844.84;5058023;28;20453;-76
2022/01/24 08:48:23;;;;;;;16.20;10.40;;;;;;;1.87;99.75;151847.41;5072731;28;20481;-76
2022/01/24 08:50:59;;;;;;;17.77;11.97;;;;;;;1.93;99.50;151861.56;5073437;28;20786;-75
2022/01/24 08:53:35;;;;;;;17.57;12.80;;;;;;;1.92;98.26;151860.28;5071588;28;20970;-75
2022/01/24 08:56:11;;;;;;;15.93;12.50;;;;;;;1.95;97.81;151868.00;5085343;28;20905;-76
2022/01/24 08:58:48;;;;;;;16.40;12.33;;;;;;;1.98;97.87;151875.72;5073465;28;20528;-75
2022/01/24 09:01:23;;;;;;;16.93;11.60;;;;;;;1.93;98.30;151862.88;5072718;28;20429;-75
2022/01/24 09:03:59;;;;;;;15.17;11.03;;;;;;;1.99;98.01;151876.97;5072497;28;20544;-75
2022/01/24 09:06:35;;;;;;;14.03;11.30;;;;;;;2.17;98.18;151924.53;5089767;28;20454;-76
2022/01/24 09:09:10;;;;;;;16.90;11.73;;;;;;;2.27;97.56;151950.28;5055399;28;20564;-75
2022/01/24 09:11:46;;;;;;;15.40;11.10;;;;;;;2.35;97.22;151970.84;5073488;28;20433;-76
2022/01/24 09:14:24;;;;;;;16.67;11.80;;;;;;;2.51;96.31;152009.41;5060287;28;20481;-76
2022/01/24 09:16:59;;;;;;;11.97;9.30;;;;;;;2.46;94.12;151999.09;5052340;28;20428;-76
2022/01/24 09:19:35;;;;;;;15.53;11.43;;;;;;;2.42;94.17;151987.53;5095159;28;20446;-76
2022/01/24 09:22:10;;;;;;;14.30;10.37;;;;;;;2.45;93.45;151995.28;5087406;28;20440;-76
2022/01/24 09:24:46;;;;;;;14.77;10.27;;;;;;;2.51;94.00;152009.41;5071243;28;20447;-76
2022/01/24 09:27:21;;;;;;;14.23;9.30;;;;;;;2.56;94.00;152022.28;5070092;28;20448;-75
2022/01/24 09:29:59;;;;;;;12.30;9.10;;;;;;;2.68;94.61;152054.41;5070012;28;20468;-76
2022/01/24 09:32:34;;;;;;;13.40;9.77;;;;;;;2.93;93.45;152117.47;5070060;28;20439;-76
2022/01/24 09:35:12;;;;;;;14.10;10.60;;;;;;;2.93;91.73;152117.47;5078237;28;20495;-75
2022/01/24 09:37:48;;;;;;;13.53;9.70;;;;;;;2.93;90.99;152117.47;5068521;28;20443;-76
2022/01/24 09:40:25;;;;;;;12.70;8.80;;;;;;;2.95;91.49;152123.91;5089900;28;20470;-76
2022/01/24 09:43:01;;;;;;;12.07;9.00;;;;;;;2.99;91.13;152132.91;5056497;28;20439;-75
2022/01/24 09:45:38;;;;;;;13.53;9.17;;;;;;;2.99;91.11;152132.91;5063785;28;20449;-76
2022/01/24 09:48:13;;;;;;;11.60;9.00;;;;;;;3.10;90.82;152161.19;5105654;28;20440;-76
2022/01/24 09:50:50;;;;;;;9.03;7.83;;;;;;;3.09;92.08;152158.66;5071746;28;20988;-76
2022/01/24 09:53:26;;;;;;;10.63;8.27;;;;;;;3.06;90.24;152152.22;5070162;28;20573;-76
2022/01/24 09:56:03;;;;;;;13.47;9.67;;;;;;;3.03;91.66;152144.47;5057911;28;20430;-76
2022/01/24 09:58:39;;;;;;;13.17;10.10;;;;;;;3.11;91.69;152163.78;5089468;28;20452;-76
2022/01/24 10:01:18;;;;;;;10.53;8.37;;;;;;;3.22;91.26;152192.09;5070913;28;20433;-76
2022/01/24 10:04:12;;;;;;;11.97;9.03;;;;;;;3.21;89.85;152189.50;5064844;28;20444;-76
2022/01/24 10:07:02;;;;;;;10.93;8.43;;;;;;;3.32;89.65;152217.81;5040717;28;20441;-76
2022/01/24 10:09:40;;;;;;;12.80;9.10;;;;;;;3.32;89.74;152217.81;5085701;28;20478;-76
2022/01/24 10:12:30;;;;;;;11.03;8.77;;;;;;;3.28;89.92;152207.56;5099682;28;20442;-76
2022/01/24 10:18:18;;;;;;;10.73;8.00;;;;;;;3.28;89.09;152206.25;5053035;28;20463;-76
2022/01/24 10:20:54;;;;;;;8.63;6.60;;;;;;;3.37;88.06;152229.41;5070860;28;20457;-76
2022/01/24 10:23:30;;;;;;;10.57;7.70;;;;;;;3.27;87.49;152204.97;5070610;28;20451;-75
2022/01/24 10:26:06;;;;;;;9.23;7.77;;;;;;;3.27;88.51;152204.97;5104668;28;20448;-76
2022/01/24 10:28:43;;;;;;;9.40;7.90;;;;;;;3.39;87.51;152234.59;5104229;28;20961;-75
2022/01/24 10:31:24;;;;;;;10.97;7.63;;;;;;;3.46;88.73;152253.88;5104781;28;20847;-76
2022/01/24 10:34:06;;;;;;;9.77;6.87;;;;;;;3.56;86.50;152279.63;5104920;28;20497;-76
2022/01/24 10:36:42;;;;;;;10.07;7.20;;;;;;;3.45;86.61;152251.28;5058623;28;20890;-76
2022/01/24 10:39:27;;;;;;;9.50;7.20;;;;;;;3.45;87.53;152251.28;5054874;28;20491;-76
2022/01/24 10:45:14;;;;;;;8.33;6.97;;;;;;;3.57;86.62;152282.16;5084187;28;20426;-76
2022/01/24 10:47:52;;;;;;;7.70;5.87;;;;;;;3.66;86.86;152304.06;5091392;28;20830;-76
2022/01/24 10:50:30;;;;;;;6.57;5.60;;;;;;;3.70;85.93;152314.38;5070029;28;20465;-76
2022/01/24 10:53:11;;;;;;;9.10;6.47;;;;;;;3.62;86.00;152295.06;5103647;28;20441;-76
2022/01/24 10:55:46;;;;;;;9.53;6.40;;;;;;;3.74;85.17;152323.34;5054581;28;20457;-76
2022/01/24 10:58:23;;;;;;;8.73;6.60;;;;;;;3.92;85.66;152369.75;5070464;28;20473;-76
2022/01/24 11:00:59;;;;;;;9.10;6.80;;;;;;;3.78;84.99;152333.69;5069242;28;20448;-75
2022/01/24 11:03:34;;;;;;;8.83;6.87;;;;;;;3.70;85.22;152314.38;5104534;28;20532;-77
2022/01/24 11:06:25;;;;;;;8.67;6.03;;;;;;;3.86;85.74;152354.28;5099098;27;20485;-76
2022/01/24 11:09:18;;;;;;;7.60;5.97;;;;;;;3.83;85.80;152346.56;5082098;28;20491;-76
2022/01/24 11:11:56;;;;;;;8.60;6.07;;;;;;;3.93;85.78;152372.28;5067748;28;20540;-76
2022/01/24 11:14:32;;;;;;;8.70;6.77;;;;;;;4.03;83.81;152398.03;5101690;28;20468;-76
2022/01/24 11:17:09;;;;;;;9.20;6.80;;;;;;;3.89;84.31;152363.25;5103771;28;20781;-75
2022/01/24 11:19:49;;;;;;;7.37;5.90;;;;;;;4.05;84.47;152403.22;5051674;28;20429;-76
2022/01/24 11:22:29;;;;;;;8.90;7.27;;;;;;;3.99;83.87;152387.75;5096204;28;20458;-76
2022/01/24 11:25:07;;;;;;;8.80;7.13;;;;;;;4.08;83.91;152412.22;5069269;28;20795;-76
2022/01/24 11:27:45;;;;;;;7.30;5.83;;;;;;;3.98;83.66;152386.47;5102166;28;20454;-75
2022/01/24 11:30:22;;;;;;;9.10;6.50;;;;;;;4.00;84.01;152390.31;5049201;28;20461;-75
2022/01/24 11:33:01;;;;;;;7.70;6.30;;;;;;;4.00;85.52;152390.31;5067018;28;20476;-76
2022/01/24 11:35:40;;;;;;;7.57;5.90;;;;;;;4.21;85.04;152444.41;5081702;28;20445;-76
2022/01/24 11:38:32;;;;;;;7.27;4.90;;;;;;;4.21;83.43;152445.69;5066756;28;20448;-76
2022/01/24 11:41:20;;;;;;;8.87;6.10;;;;;;;4.19;83.38;152440.56;5050724;28;20450;-76
2022/01/24 11:44:06;;;;;;;6.90;4.93;;;;;;;4.19;83.86;152439.25;5068326;28;20421;-76
2022/01/24 11:46:46;;;;;;;9.50;4.67;;;;;;;4.38;83.47;152486.91;5103337;28;20477;-76
2022/01/24 11:49:28;;;;;;;6.80;3.93;;;;;;;4.41;82.54;152495.94;5100320;28;20470;-76
2022/01/24 11:52:06;;;;;;;6.60;5.23;;;;;;;4.37;81.98;152484.38;5056646;28;20465;-76
2022/01/24 11:54:51;;;;;;;4.87;4.27;;;;;;;4.43;82.12;152499.78;5067697;28;20454;-76
2022/01/24 11:57:34;;;;;;;6.17;4.20;;;;;;;4.51;81.62;152521.69;5050356;28;20519;-76
2022/01/24 12:00:19;;;;;;;7.00;4.80;;;;;;;4.49;81.95;152515.25;5060450;28;20457;-76
2022/01/24 12:02:57;;;;;;;6.70;4.23;;;;;;;4.57;82.04;152537.19;5070524;28;20457;-76
2022/01/24 12:05:42;;;;;;;5.90;4.40;;;;;;;4.57;81.76;152537.19;5115626;28;20467;-76
2022/01/24 12:08:28;;;;;;;7.23;4.20;;;;;;;4.63;81.19;152551.34;5090048;28;20424;-76
2022/01/24 12:11:14;;;;;;;5.73;4.33;;;;;;;4.68;80.75;152565.53;5085791;28;20441;-76
2022/01/24 12:13:53;;;;;;;4.60;4.00;;;;;;;4.56;81.90;152534.59;5086984;28;20948;-76
2022/01/24 12:16:35;;;;;;;6.67;4.87;;;;;;;4.54;82.04;152529.44;5086594;28;20448;-76
2022/01/24 12:19:11;;;;;;;5.83;4.80;;;;;;;4.71;81.14;152571.97;5104078;28;20442;-76
2022/01/24 12:21:47;;;;;;;8.03;4.50;;;;;;;4.79;81.94;152593.84;5103767;28;20448;-76
2022/01/24 12:24:22;;;;;;;4.40;3.70;;;;;;;4.71;80.89;152573.22;5053964;28;20445;-76
2022/01/24 12:27:06;;;;;;;6.67;4.43;;;;;;;4.80;80.87;152596.44;5069979;28;20871;-76
2022/01/24 12:29:42;;;;;;;5.73;3.90;;;;;;;4.87;80.77;152613.22;5072762;28;20479;-76
2022/01/24 12:32:23;;;;;;;6.00;3.83;;;;;;;4.82;80.78;152600.28;5087770;28;20446;-76
2022/01/24 12:34:59;;;;;;;5.73;4.23;;;;;;;4.95;81.14;152632.53;5091541;28;20446;-76
2022/01/24 12:37:34;;;;;;;5.30;4.30;;;;;;;4.89;80.76;152618.34;5094291;28;20450;-76
2022/01/24 12:40:12;;;;;;;4.83;3.40;;;;;;;4.88;80.02;152617.06;5053838;28;20450;-76
2022/01/24 12:42:52;;;;;;;6.37;5.00;;;;;;;4.91;80.51;152623.50;5082425;28;20511;-76
2022/01/24 12:48:21;;;;;;;8.33;4.27;;;;;;;4.98;80.81;152640.28;5088264;28;20445;-76
2022/01/24 12:50:58;;;;;;;9.77;4.40;;;;;;;4.87;81.38;152614.47;5072092;28;20469;-76
2022/01/24 12:53:38;;;;;;;5.13;4.30;;;;;;;4.77;81.02;152588.69;5064107;28;20446;-76
2022/01/24 12:56:14;;;;;;;5.60;4.50;;;;;;;4.92;80.79;152627.34;5074442;28;20925;-76
2022/01/24 12:58:52;;;;;;;7.53;4.30;;;;;;;4.94;80.43;152631.22;5105501;28;20471;-76
2022/01/24 13:01:28;;;;;;;5.83;4.00;;;;;;;5.15;80.16;152684.06;5105777;28;20464;-76
2022/01/24 13:04:07;;;;;;;3.93;3.50;;;;;;;5.16;79.78;152687.97;5101900;28;20785;-76
2022/01/24 13:06:46;;;;;;;4.97;3.43;;;;;;;5.08;80.17;152667.34;5094295;28;20773;-76
2022/01/24 13:09:25;;;;;;;6.67;3.80;;;;;;;5.17;79.60;152689.22;5068891;28;21039;-76
2022/01/24 13:12:04;;;;;;;4.67;3.70;;;;;;;5.11;79.95;152673.78;5073773;28;20546;-76
2022/01/24 13:14:46;;;;;;;7.83;4.27;;;;;;;4.99;80.21;152644.13;5106616;28;20457;-76
2022/01/24 13:20:52;;;;;;;6.17;4.40;;;;;;;5.19;79.72;152695.66;5073329;28;20430;-76
2022/01/24 13:23:26;;;;;;;5.40;4.13;;;;;;;5.06;80.05;152662.16;5052654;28;20442;-76
2022/01/24 13:26:01;;;;;;;7.10;4.47;;;;;;;5.03;80.71;152653.16;5071743;28;20515;-76